createdAt,value
2023-03-10T00:00:43.987Z,7.09
2023-03-10T00:03:12.154Z,7.10
2023-03-10T00:05:40.405Z,7.11
2023-03-10T00:08:08.534Z,7.12
2023-03-10T00:10:38.289Z,7.04
2023-03-10T00:13:06.698Z,7.10
2023-03-10T00:15:34.772Z,7.12
2023-03-10T00:18:02.849Z,7.15
2023-03-10T00:20:30.892Z,7.15
2023-03-10T00:22:58.940Z,7.11
2023-03-10T00:25:27.097Z,7.06
2023-03-10T00:27:56.804Z,7.03
2023-03-10T00:30:24.849Z,7.01
2023-03-10T00:32:52.909Z,7.02
2023-03-10T00:35:21.258Z,7.05
2023-03-10T00:37:49.281Z,7.03
2023-03-10T00:40:18.002Z,7.05
2023-03-10T00:42:47.443Z,7.10
2023-03-10T00:45:16.996Z,7.13
2023-03-10T00:47:45.031Z,7.13
2023-03-10T00:50:13.367Z,7.16
2023-03-10T00:52:41.608Z,7.12
2023-03-10T00:55:10.425Z,7.10
2023-03-10T00:57:38.504Z,7.10
2023-03-10T01:00:08.525Z,7.13
2023-03-10T01:02:37.948Z,7.15
2023-03-10T01:05:06.387Z,7.12
2023-03-10T01:07:34.743Z,7.08
2023-03-10T01:10:02.841Z,7.11
2023-03-10T01:12:30.860Z,7.12
2023-03-10T01:15:00.268Z,7.13
2023-03-10T01:17:28.370Z,7.14
2023-03-10T01:19:57.824Z,7.16
2023-03-10T01:22:26.229Z,7.12
2023-03-10T01:24:54.276Z,7.09
2023-03-10T01:27:22.303Z,7.05
2023-03-10T01:29:50.325Z,7.04
2023-03-10T01:32:18.410Z,7.05
2023-03-10T01:34:46.781Z,7.03
2023-03-10T01:37:16.292Z,7.04
2023-03-10T01:39:44.346Z,7.02
2023-03-10T01:42:12.431Z,6.98
2023-03-10T01:44:40.624Z,6.99
2023-03-10T01:47:08.967Z,6.97
2023-03-10T01:49:39.890Z,6.96
2023-03-10T01:52:10.457Z,6.98
2023-03-10T01:54:44.040Z,6.95
2023-03-10T01:57:12.325Z,6.93
2023-03-10T01:59:40.711Z,6.94
2023-03-10T02:02:09.207Z,6.96
2023-03-10T02:04:38.607Z,6.97
2023-03-10T02:07:06.808Z,7.01
2023-03-10T02:09:36.895Z,7.04
2023-03-10T02:12:07.650Z,7.01
2023-03-10T02:14:36.671Z,7.06
2023-03-10T02:17:05.756Z,7.05
2023-03-10T02:19:43.051Z,7.16
2023-03-10T02:22:12.438Z,7.14
2023-03-10T02:24:44.665Z,7.17
2023-03-10T02:27:19.843Z,7.20
2023-03-10T02:29:58.913Z,7.28
2023-03-10T02:32:32.063Z,7.28
2023-03-10T02:35:01.209Z,7.28
2023-03-10T02:37:31.416Z,7.27
2023-03-10T02:39:59.903Z,7.24
2023-03-10T02:42:31.269Z,7.20
2023-03-10T02:44:59.541Z,7.22
2023-03-10T02:47:27.650Z,7.19
2023-03-10T02:49:55.809Z,7.14
2023-03-10T02:52:28.151Z,7.08
2023-03-10T02:54:56.318Z,7.04
2023-03-10T02:57:24.496Z,7.03
2023-03-10T02:59:54.174Z,7.01
2023-03-10T03:02:22.451Z,6.99
2023-03-10T03:04:50.526Z,6.97
2023-03-10T03:07:18.658Z,7.00
2023-03-10T03:09:47.071Z,6.99
2023-03-10T03:12:15.175Z,6.98
2023-03-10T03:14:43.267Z,7.01
2023-03-10T03:17:13.326Z,7.02
2023-03-10T03:19:41.492Z,6.97
2023-03-10T03:22:09.901Z,7.01
2023-03-10T03:24:38.038Z,7.00
2023-03-10T03:27:06.341Z,7.03
2023-03-10T03:29:35.076Z,7.06
2023-03-10T03:32:03.152Z,7.12
2023-03-10T03:34:36.238Z,7.04
2023-03-10T03:37:06.903Z,6.98
2023-03-10T03:39:38.940Z,6.97
2023-03-10T03:42:09.124Z,7.02
2023-03-10T03:44:45.226Z,7.04
2023-03-10T03:47:14.351Z,7.07
2023-03-10T03:49:44.475Z,7.11
2023-03-10T03:52:14.624Z,7.10
2023-03-10T03:54:42.715Z,7.07
2023-03-10T03:57:10.986Z,7.09
2023-03-10T03:59:39.191Z,7.07
2023-03-10T04:02:07.401Z,7.09
2023-03-10T04:04:35.873Z,7.12
2023-03-10T04:07:05.489Z,7.07
2023-03-10T04:09:33.791Z,7.09
2023-03-10T04:12:01.906Z,7.03
2023-03-10T04:14:31.277Z,7.08
2023-03-10T04:16:59.354Z,7.09
2023-03-10T04:19:27.967Z,7.08
2023-03-10T04:22:02.357Z,7.11
2023-03-10T04:24:34.478Z,7.12
2023-03-10T04:27:02.781Z,7.13
2023-03-10T04:29:31.118Z,7.10
2023-03-10T04:32:05.600Z,7.17
2023-03-10T04:34:38.170Z,7.24
2023-03-10T04:37:06.697Z,7.24
2023-03-10T04:39:37.042Z,7.23
2023-03-10T04:42:06.484Z,7.19
2023-03-10T04:44:35.092Z,7.18
2023-03-10T04:47:06.483Z,7.22
2023-03-10T04:49:35.073Z,7.18
2023-03-10T04:52:03.962Z,7.14
2023-03-10T04:54:32.284Z,7.15
2023-03-10T04:57:01.985Z,7.20
2023-03-10T04:59:30.592Z,7.21
2023-03-10T05:01:59.141Z,7.30
2023-03-10T05:04:27.591Z,7.33
2023-03-10T05:06:57.138Z,7.38
2023-03-10T05:09:29.749Z,7.38
2023-03-10T05:11:58.324Z,7.34
2023-03-10T05:14:30.860Z,7.37
2023-03-10T05:16:59.039Z,7.37
2023-03-10T05:19:28.799Z,7.36
2023-03-10T05:21:58.835Z,7.35
2023-03-10T05:24:27.290Z,7.37
2023-03-10T05:26:55.658Z,7.34
2023-03-10T05:29:25.612Z,7.31
2023-03-10T05:32:00.386Z,7.35
2023-03-10T05:34:33.983Z,7.32
2023-03-10T05:37:04.704Z,7.32
2023-03-10T05:39:33.010Z,7.36
2023-03-10T05:42:04.801Z,7.45
2023-03-10T05:44:35.442Z,7.46
2023-03-10T05:47:07.721Z,7.52
2023-03-10T05:49:38.646Z,7.49
2023-03-10T05:52:07.713Z,7.49
2023-03-10T05:54:37.461Z,7.44
2023-03-10T05:57:06.532Z,7.46
2023-03-10T05:59:34.924Z,7.49
2023-03-10T06:02:03.034Z,7.48
2023-03-10T06:04:33.381Z,7.56
2023-03-10T06:07:01.719Z,7.59
2023-03-10T06:09:30.369Z,7.58
2023-03-10T06:11:58.529Z,7.59
2023-03-10T06:14:26.843Z,7.52
2023-03-10T06:16:55.251Z,7.53
2023-03-10T06:19:23.538Z,7.53
2023-03-10T06:21:52.963Z,7.53
2023-03-10T06:24:21.117Z,7.56
2023-03-10T06:26:49.186Z,7.58
2023-03-10T06:29:17.496Z,7.63
2023-03-10T06:31:45.613Z,7.66
2023-03-10T06:34:13.785Z,7.67
2023-03-10T06:36:41.888Z,7.68
2023-03-10T06:39:11.339Z,7.69
2023-03-10T06:41:39.693Z,7.70
2023-03-10T06:44:07.781Z,7.70
2023-03-10T06:46:35.827Z,7.72
2023-03-10T06:49:03.853Z,7.74
2023-03-10T06:51:31.939Z,7.80
2023-03-10T06:54:00.029Z,7.82
2023-03-10T06:56:29.478Z,7.84
2023-03-10T06:58:57.537Z,7.85
2023-03-10T07:01:26.498Z,7.86
2023-03-10T07:03:54.780Z,7.90
2023-03-10T07:06:22.938Z,7.87
2023-03-10T07:08:51.307Z,7.88
2023-03-10T07:11:19.422Z,7.87
2023-03-10T07:13:48.879Z,7.84
2023-03-10T07:16:17.029Z,7.83
2023-03-10T07:18:45.153Z,7.85
2023-03-10T07:21:15.599Z,7.88
2023-03-10T07:23:43.713Z,7.90
2023-03-10T07:26:13.080Z,7.93
2023-03-10T07:28:41.162Z,7.94
2023-03-10T07:31:12.304Z,7.96
2023-03-10T07:33:40.471Z,8.00
2023-03-10T07:36:10.246Z,8.01
2023-03-10T07:38:38.437Z,8.01
2023-03-10T07:41:10.177Z,8.06
2023-03-10T07:43:38.426Z,8.09
2023-03-10T07:46:07.360Z,8.12
2023-03-10T07:48:36.860Z,8.13
2023-03-10T07:51:05.474Z,8.18
2023-03-10T07:53:33.496Z,8.22
2023-03-10T07:56:01.555Z,8.29
2023-03-10T07:58:29.714Z,8.34
2023-03-10T08:00:57.809Z,8.40
2023-03-10T08:03:26.723Z,8.42
2023-03-10T08:05:57.027Z,8.45
2023-03-10T08:08:25.111Z,8.51
2023-03-10T08:11:01.410Z,8.56
2023-03-10T08:13:29.817Z,8.62
2023-03-10T08:15:59.605Z,8.70
2023-03-10T08:18:29.479Z,8.66
2023-03-10T08:20:58.949Z,8.63
2023-03-10T08:23:27.147Z,8.65
2023-03-10T08:25:55.185Z,8.64
2023-03-10T08:28:23.274Z,8.57
2023-03-10T08:31:03.620Z,8.46
2023-03-10T08:33:32.971Z,8.41
2023-03-10T08:36:07.013Z,8.35
2023-03-10T08:38:35.142Z,8.47
2023-03-10T08:41:14.062Z,8.57
2023-03-10T08:43:42.258Z,8.61
2023-03-10T08:46:11.264Z,8.65
2023-03-10T08:48:42.558Z,8.74
2023-03-10T08:51:15.458Z,8.86
2023-03-10T08:53:44.170Z,8.96
2023-03-10T08:56:12.270Z,8.98
2023-03-10T08:58:40.380Z,8.99
2023-03-10T09:01:08.746Z,8.93
2023-03-10T09:03:36.943Z,8.90
2023-03-10T09:06:05.265Z,9.00
2023-03-10T09:08:34.779Z,9.21
2023-03-10T09:11:03.093Z,9.42
2023-03-10T09:13:31.398Z,9.66
2023-03-10T09:15:59.811Z,9.87
2023-03-10T09:18:27.972Z,10.07
2023-03-10T09:20:56.018Z,10.27
2023-03-10T09:23:24.146Z,10.43
2023-03-10T09:25:53.912Z,10.32
2023-03-10T09:28:21.997Z,10.24
2023-03-10T09:30:51.089Z,10.31
2023-03-10T09:33:19.873Z,10.27
2023-03-10T09:36:05.092Z,10.06
2023-03-10T09:38:34.186Z,10.08
2023-03-10T09:41:08.935Z,10.13
2023-03-10T09:43:38.948Z,10.11
2023-03-10T09:46:10.004Z,10.01
2023-03-10T09:48:42.428Z,10.02
2023-03-10T09:51:15.068Z,10.05
2023-03-10T09:53:53.204Z,10.11
2023-03-10T09:56:24.314Z,10.15
2023-03-10T09:58:54.184Z,10.09
2023-03-10T10:01:23.839Z,10.04
2023-03-10T10:03:53.819Z,10.05
2023-03-10T10:06:25.679Z,10.04
2023-03-10T10:09:04.138Z,10.03
2023-03-10T10:11:35.364Z,10.09
2023-03-10T10:14:22.273Z,10.15
2023-03-10T10:16:59.766Z,10.34
2023-03-10T10:19:28.442Z,10.99
2023-03-10T10:21:59.772Z,11.64
2023-03-10T10:24:27.859Z,12.12
2023-03-10T10:26:57.321Z,12.60
2023-03-10T10:29:26.289Z,12.63
2023-03-10T10:32:04.913Z,12.87
2023-03-10T10:34:32.982Z,12.90
2023-03-10T10:37:01.128Z,12.93
2023-03-10T10:39:31.502Z,13.23
2023-03-10T10:42:18.886Z,13.56
2023-03-10T10:44:47.087Z,13.52
2023-03-10T10:47:26.551Z,13.56
2023-03-10T10:49:54.671Z,13.65
2023-03-10T10:52:23.522Z,13.81
2023-03-10T10:54:56.331Z,13.92
2023-03-10T10:57:29.116Z,13.96
2023-03-10T10:59:57.169Z,13.68
2023-03-10T11:02:31.800Z,13.59
2023-03-10T11:05:08.664Z,13.78
2023-03-10T11:07:36.858Z,13.71
2023-03-10T11:10:10.156Z,14.10
2023-03-10T11:12:41.897Z,14.21
2023-03-10T11:15:14.456Z,14.55
2023-03-10T11:17:45.122Z,14.55
2023-03-10T11:20:24.672Z,14.46
2023-03-10T11:22:56.775Z,14.56
2023-03-10T11:25:27.304Z,14.41
2023-03-10T11:28:03.208Z,14.19
2023-03-10T11:30:32.871Z,13.74
2023-03-10T11:33:14.504Z,13.46
2023-03-10T11:35:45.714Z,13.02
2023-03-10T11:38:20.647Z,12.76
2023-03-10T11:40:49.175Z,12.49
2023-03-10T11:43:24.573Z,12.39
2023-03-10T11:45:54.408Z,12.34
2023-03-10T11:48:46.004Z,12.31
2023-03-10T11:51:18.790Z,12.30
2023-03-10T11:53:49.989Z,12.56
2023-03-10T11:56:19.308Z,12.47
2023-03-10T11:58:50.907Z,12.36
2023-03-10T12:01:21.017Z,12.16
2023-03-10T12:03:52.078Z,12.10
2023-03-10T12:06:23.097Z,12.07
2023-03-10T12:08:52.760Z,12.19
2023-03-10T12:11:22.037Z,12.23
2023-03-10T12:13:54.662Z,11.98
2023-03-10T12:16:24.444Z,11.84
2023-03-10T12:18:53.503Z,11.63
2023-03-10T12:21:23.525Z,11.53
2023-03-10T12:23:52.389Z,11.28
2023-03-10T12:26:58.071Z,11.15
2023-03-10T12:29:43.749Z,10.93
2023-03-10T12:32:42.859Z,10.75
2023-03-10T12:35:43.448Z,10.60
2023-03-10T12:38:47.906Z,9.73
2023-03-10T12:41:16.286Z,8.80
2023-03-10T12:44:08.010Z,8.30
2023-03-10T12:46:45.433Z,8.04
2023-03-10T12:49:23.628Z,7.92
2023-03-10T12:51:53.463Z,7.69
2023-03-10T12:54:34.174Z,7.55
2023-03-10T12:57:05.922Z,7.50
2023-03-10T12:59:36.707Z,7.47
2023-03-10T13:02:06.526Z,7.45
2023-03-10T13:04:34.629Z,7.45
2023-03-10T13:07:04.194Z,7.41
2023-03-10T13:09:34.167Z,7.31
2023-03-10T13:12:04.536Z,7.39
2023-03-10T13:14:37.204Z,7.48
2023-03-10T13:17:06.939Z,7.79
2023-03-10T13:19:36.238Z,8.12
2023-03-10T13:22:04.818Z,8.48
2023-03-10T13:24:33.553Z,8.67
2023-03-10T13:27:06.378Z,8.67
2023-03-10T13:29:34.808Z,8.55
2023-03-10T13:32:03.007Z,8.42
2023-03-10T13:34:33.552Z,8.34
2023-03-10T13:37:05.783Z,8.38
2023-03-10T13:39:33.981Z,8.26
2023-03-10T13:42:02.937Z,8.32
2023-03-10T13:44:33.435Z,8.41
2023-03-10T13:47:02.114Z,8.39
2023-03-10T13:49:31.711Z,8.39
2023-03-10T13:52:01.570Z,8.52
2023-03-10T13:54:31.151Z,8.68
2023-03-10T13:57:01.832Z,8.69
2023-03-10T13:59:30.663Z,8.70
2023-03-10T14:02:00.082Z,8.74
2023-03-10T14:04:47.695Z,8.94
2023-03-10T14:07:19.418Z,9.06
2023-03-10T14:09:48.406Z,9.13
2023-03-10T14:12:16.474Z,8.94
2023-03-10T14:14:44.652Z,8.88
2023-03-10T14:17:31.157Z,8.70
2023-03-10T14:19:59.253Z,8.55
2023-03-10T14:22:35.741Z,8.37
2023-03-10T14:25:07.075Z,8.23
2023-03-10T14:27:35.263Z,8.11
2023-03-10T14:30:04.966Z,8.05
2023-03-10T14:32:33.051Z,7.96
2023-03-10T14:35:01.216Z,7.83
2023-03-10T14:37:29.316Z,7.81
2023-03-10T14:39:58.785Z,7.74
2023-03-10T14:42:28.644Z,7.63
2023-03-10T14:44:56.673Z,7.60
2023-03-10T14:47:24.864Z,7.62
2023-03-10T14:49:53.380Z,7.63
2023-03-10T14:52:21.509Z,7.59
2023-03-10T14:54:49.587Z,7.53
2023-03-10T14:57:20.565Z,7.49
2023-03-10T14:59:48.626Z,7.63
2023-03-10T15:02:22.435Z,7.73
2023-03-10T15:04:50.604Z,7.76
2023-03-10T15:07:18.921Z,7.63
2023-03-10T15:09:46.982Z,7.53
2023-03-10T15:12:15.512Z,7.49
2023-03-10T15:14:52.240Z,7.43
2023-03-10T15:17:20.352Z,7.32
2023-03-10T15:19:48.439Z,7.29
2023-03-10T15:22:16.515Z,7.25
2023-03-10T15:24:44.617Z,7.22
2023-03-10T15:27:13.193Z,7.23
2023-03-10T15:29:41.304Z,7.18
2023-03-10T15:32:11.070Z,7.19
2023-03-10T15:34:39.134Z,7.20
2023-03-10T15:37:08.723Z,7.18
2023-03-10T15:39:37.451Z,7.17
2023-03-10T15:42:05.688Z,7.13
2023-03-10T15:44:34.661Z,7.15
2023-03-10T15:47:02.833Z,7.15
2023-03-10T15:49:32.434Z,7.13
2023-03-10T15:52:00.496Z,7.09
2023-03-10T15:54:28.603Z,7.06
2023-03-10T15:56:56.807Z,7.03
2023-03-10T15:59:25.494Z,7.00
2023-03-10T16:01:53.649Z,6.97
2023-03-10T16:04:21.827Z,6.94
2023-03-10T16:06:51.292Z,6.86
2023-03-10T16:09:19.318Z,6.82
2023-03-10T16:11:47.345Z,6.79
2023-03-10T16:14:15.722Z,6.76
2023-03-10T16:16:43.834Z,6.73
2023-03-10T16:19:11.966Z,6.75
2023-03-10T16:21:39.971Z,6.68
2023-03-10T16:24:10.334Z,6.67
2023-03-10T16:26:38.844Z,6.65
2023-03-10T16:29:06.992Z,6.62
2023-03-10T16:31:35.058Z,6.60
2023-03-10T16:34:03.157Z,6.60
2023-03-10T16:36:31.278Z,6.56
2023-03-10T16:38:59.708Z,6.54
2023-03-10T16:41:29.939Z,6.50
2023-03-10T16:43:58.193Z,6.50
2023-03-10T16:46:30.063Z,6.48
2023-03-10T16:48:58.512Z,6.48
2023-03-10T16:51:28.254Z,6.47
2023-03-10T16:53:57.752Z,6.45
2023-03-10T16:56:26.276Z,6.43
2023-03-10T16:58:55.971Z,6.41
2023-03-10T17:01:25.151Z,6.36
2023-03-10T17:03:53.563Z,6.38
2023-03-10T17:06:24.422Z,6.38
2023-03-10T17:08:52.866Z,6.37
2023-03-10T17:11:22.012Z,6.37
2023-03-10T17:13:52.530Z,6.37
2023-03-10T17:16:23.478Z,6.37
2023-03-10T17:18:51.856Z,6.39
2023-03-10T17:21:21.404Z,6.39
2023-03-10T17:23:49.803Z,6.39
2023-03-10T17:26:17.975Z,6.39
2023-03-10T17:28:46.503Z,6.44
2023-03-10T17:31:15.484Z,6.43
2023-03-10T17:33:45.271Z,6.43
2023-03-10T17:36:14.775Z,6.42
2023-03-10T17:38:43.042Z,6.40
2023-03-10T17:41:12.074Z,6.41
2023-03-10T17:43:40.188Z,6.38
2023-03-10T17:46:09.517Z,6.37
2023-03-10T17:48:38.048Z,6.37
2023-03-10T17:51:07.610Z,6.36
2023-03-10T17:53:35.790Z,6.32
2023-03-10T17:56:04.652Z,6.31
2023-03-10T17:58:32.795Z,6.30
2023-03-10T18:01:07.704Z,6.29
2023-03-10T18:03:36.336Z,6.26
2023-03-10T18:06:04.780Z,6.25
2023-03-10T18:08:34.253Z,6.23
2023-03-10T18:11:02.533Z,6.21
2023-03-10T18:13:31.191Z,6.19
2023-03-10T18:15:59.686Z,6.19
2023-03-10T18:18:27.755Z,6.17
2023-03-10T18:20:55.811Z,6.17
2023-03-10T18:23:23.902Z,6.20
2023-03-10T18:25:53.410Z,6.17
2023-03-10T18:28:23.486Z,6.15
2023-03-10T18:30:53.387Z,6.16
2023-03-10T18:33:21.520Z,6.14
2023-03-10T18:35:49.796Z,6.12
2023-03-10T18:38:18.079Z,6.10
2023-03-10T18:40:46.139Z,6.07
2023-03-10T18:43:15.934Z,6.06
2023-03-10T18:45:44.854Z,6.04
2023-03-10T18:48:12.978Z,6.04
2023-03-10T18:50:41.058Z,6.01
2023-03-10T18:53:09.206Z,6.00
2023-03-10T18:55:37.338Z,5.99
2023-03-10T18:58:06.080Z,5.97
2023-03-10T19:00:35.580Z,5.95
2023-03-10T19:03:03.686Z,5.92
2023-03-10T19:05:32.712Z,5.91
2023-03-10T19:08:02.066Z,5.89
2023-03-10T19:10:30.682Z,5.87
2023-03-10T19:12:58.757Z,5.84
2023-03-10T19:15:26.825Z,5.80
2023-03-10T19:17:56.382Z,5.76
2023-03-10T19:20:24.472Z,5.73
2023-03-10T19:22:52.541Z,5.68
2023-03-10T19:25:21.320Z,5.60
2023-03-10T19:27:49.466Z,5.48
2023-03-10T19:30:19.967Z,5.43
2023-03-10T19:32:48.468Z,5.34
2023-03-10T19:35:18.539Z,5.26
2023-03-10T19:37:47.308Z,5.17
2023-03-10T19:40:16.331Z,5.11
2023-03-10T19:42:44.553Z,5.03
2023-03-10T19:45:13.481Z,4.98
2023-03-10T19:47:41.733Z,4.93
2023-03-10T19:50:11.163Z,4.90
2023-03-10T19:52:43.686Z,4.90
2023-03-10T19:55:14.517Z,4.89
2023-03-10T19:57:42.738Z,4.89
2023-03-10T20:00:14.807Z,4.88
2023-03-10T20:02:44.677Z,4.83
2023-03-10T20:05:14.662Z,4.81
2023-03-10T20:07:44.304Z,4.80
2023-03-10T20:10:12.936Z,4.74
2023-03-10T20:12:41.073Z,4.71
2023-03-10T20:15:09.772Z,4.71
2023-03-10T20:17:38.012Z,4.68
2023-03-10T20:20:10.634Z,4.65
2023-03-10T20:22:39.644Z,4.63
2023-03-10T20:25:10.793Z,4.58
2023-03-10T20:27:39.018Z,4.54
2023-03-10T20:30:08.728Z,4.52
2023-03-10T20:32:37.137Z,4.52
2023-03-10T20:35:05.459Z,4.52
2023-03-10T20:37:33.798Z,4.45
2023-03-10T20:40:01.959Z,4.47
2023-03-10T20:42:31.378Z,4.49
2023-03-10T20:44:59.480Z,4.47
2023-03-10T20:47:27.965Z,4.42
2023-03-10T20:49:56.263Z,4.40
2023-03-10T20:52:24.321Z,4.41
2023-03-10T20:54:54.287Z,4.36
2023-03-10T20:57:22.502Z,4.32
2023-03-10T20:59:52.590Z,4.26
2023-03-10T21:02:20.668Z,4.23
2023-03-10T21:04:49.203Z,4.21
2023-03-10T21:07:17.321Z,4.18
2023-03-10T21:09:45.664Z,4.12
2023-03-10T21:12:18.511Z,4.07
2023-03-10T21:14:46.955Z,4.07
2023-03-10T21:17:16.462Z,4.00
2023-03-10T21:19:44.474Z,3.98
2023-03-10T21:22:12.683Z,3.99
2023-03-10T21:24:40.778Z,3.91
2023-03-10T21:27:08.852Z,3.92
2023-03-10T21:29:36.943Z,3.92
2023-03-10T21:32:05.110Z,3.89
2023-03-10T21:34:34.570Z,3.88
2023-03-10T21:37:02.616Z,3.86
2023-03-10T21:39:30.689Z,3.85
2023-03-10T21:41:59.191Z,3.83
2023-03-10T21:44:27.227Z,3.84
2023-03-10T21:46:55.291Z,3.85
2023-03-10T21:49:23.307Z,3.83
2023-03-10T21:51:52.739Z,3.80
2023-03-10T21:54:21.150Z,3.77
2023-03-10T21:56:49.245Z,3.77
2023-03-10T21:59:17.585Z,3.76
2023-03-10T22:01:45.696Z,3.73
2023-03-10T22:04:13.862Z,3.75
2023-03-10T22:06:41.991Z,3.67
2023-03-10T22:09:11.945Z,3.62
2023-03-10T22:11:40.018Z,3.58
2023-03-10T22:14:08.092Z,3.51
2023-03-10T22:16:36.169Z,3.38
2023-03-10T22:19:04.234Z,3.13
2023-03-10T22:21:32.597Z,2.97
2023-03-10T22:24:01.125Z,2.90
2023-03-10T22:26:30.525Z,2.84
2023-03-10T22:29:00.387Z,2.74
2023-03-10T22:31:28.477Z,2.57
2023-03-10T22:33:56.564Z,2.39
2023-03-10T22:36:25.132Z,2.27
2023-03-10T22:38:53.228Z,2.08
2023-03-10T22:41:21.250Z,1.98
2023-03-10T22:43:52.032Z,1.88
2023-03-10T22:46:20.364Z,1.81
2023-03-10T22:48:48.452Z,1.74
2023-03-10T22:51:17.678Z,1.71
2023-03-10T22:53:46.877Z,1.69
2023-03-10T22:56:14.956Z,1.60
2023-03-10T22:58:43.100Z,1.58
2023-03-10T23:01:12.527Z,1.61
2023-03-10T23:03:41.623Z,1.59
2023-03-10T23:06:09.742Z,1.54
2023-03-10T23:08:38.100Z,1.47
2023-03-10T23:11:09.909Z,1.38
2023-03-10T23:13:38.049Z,1.25
2023-03-10T23:16:07.228Z,1.23
2023-03-10T23:18:37.304Z,1.16
2023-03-10T23:21:06.015Z,1.11
2023-03-10T23:23:34.083Z,1.02
2023-03-10T23:26:02.150Z,1.03
2023-03-10T23:28:30.181Z,1.03
2023-03-10T23:30:59.818Z,0.98
2023-03-10T23:33:28.302Z,1.00
2023-03-10T23:35:57.780Z,0.96
2023-03-10T23:38:26.216Z,0.95
2023-03-10T23:40:55.463Z,0.94
2023-03-10T23:43:23.643Z,0.91
2023-03-10T23:45:52.148Z,0.90
2023-03-10T23:48:20.355Z,0.91
2023-03-10T23:50:48.738Z,0.90
2023-03-10T23:53:20.592Z,0.89
2023-03-10T23:55:49.027Z,0.88
2023-03-10T23:58:17.830Z,0.81
